EW1896 Weather Reports


Display with metric or nautical units.
time (UTC)temp
F
wind
direction
speed
MPH
gust
MPH
rain 1hr
in
rain 24hr
in
rain mn
in
humidity
%
barometer
mb
20210924030006 60 317 0.0 0.0 0.00 0.00 0.00 88 1016.9
20210924024508 60 317 0.0 0.0 0.00 0.00 0.00 87 1016.9
20210924023003 61 317 0.0 0.0 0.00 0.00 0.00 87 1017.0
20210924021503 61 316 0.0 0.0 0.00 0.00 0.00 85 1016.9
20210924020003 62 316 0.0 0.0 0.00 0.00 0.00 84 1016.9
20210924014508 63 332 0.0 0.0 0.00 0.00 0.00 83 1016.9
20210924013014 63 335 0.0 0.0 0.00 0.00 0.00 82 1016.8
20210924010137 63 307 0.0 0.0 0.00 0.00 0.00 82 1016.7
20210924004622 64 307 0.0 0.0 0.00 0.00 0.00 80 1016.5
20210924003152 65 307 0.0 0.0 0.00 0.00 0.00 78 1016.4
20210924001725 66 306 0.0 0.0 0.00 0.00 0.00 77 1016.4
20210924000122 66 312 0.0 0.0 0.00 0.00 0.00 76 1016.2
20210923234648 68 327 0.0 0.0 0.00 0.00 0.00 73 1016.1
20210923233153 69 326 0.0 0.0 0.00 0.00 0.00 70 1016.0
20210923231628 72 326 0.0 0.0 0.00 0.00 0.00 65 1016.0
20210923230149 73 326 0.0 0.0 0.00 0.00 0.00 61 1015.9
20210923224726 74 311 0.0 0.0 0.00 0.00 0.00 61 1015.8
20210923223228 74 330 0.0 2.0 0.00 0.00 0.00 60 1015.6
20210923221618 75 330 0.0 0.0 0.00 0.00 0.00 58 1015.6
20210923220118 75 318 0.0 0.0 0.00 0.00 0.00 58 1015.5
20210923214644 75 26 0.0 1.0 0.00 0.00 0.00 59 1015.3
20210923213214 75 305 0.0 5.0 0.00 0.00 0.00 56 1015.4
20210923211711 75 26 0.0 0.0 0.00 0.00 0.00 56 1015.4
20210923210133 75 321 0.0 0.0 0.00 0.00 0.00 58 1015.4
20210923204621 75 15 0.0 1.0 0.00 0.00 0.00 60 1015.4
20210923203129 75 314 0.0 0.0 0.00 0.00 0.00 57 1015.4
20210923201633 75 328 0.0 2.0 0.00 0.00 0.00 61 1015.4
20210923200103 74 37 0.0 1.0 0.00 0.00 0.00 58 1015.5
20210923194747 74 323 0.0 1.0 0.00 0.00 0.00 59 1015.6
20210923193121 74 53 0.0 6.0 0.00 0.00 0.00 58 1015.7
20210923191550 74 11 0.0 2.0 0.00 0.00 0.00 59 1015.9
20210923190103 74 339 0.0 5.0 0.00 0.00 0.00 59 1016.1
20210923184539 74 323 0.0 0.0 0.00 0.00 0.00 57 1016.3
20210923183105 73 19 0.0 0.0 0.00 0.00 0.00 60 1016.5
20210923181608 73 4 0.0 2.0 0.00 0.00 0.00 61 1016.7
20210923180040 72 8 0.0 6.0 0.00 0.00 0.00 60 1016.9
20210923174548 72 52 0.0 6.0 0.00 0.00 0.00 58 1016.9
20210923173057 72 334 0.0 5.0 0.00 0.00 0.00 59 1017.1
20210923171609 71 32 0.0 4.0 0.00 0.00 0.00 59 1017.1
20210923170037 71 44 0.0 1.0 0.00 0.00 0.00 62 1017.2
20210923164529 70 27 0.0 6.0 0.00 0.00 0.00 61 1017.3
20210923163141 70 356 0.0 4.0 0.00 0.00 0.00 64 1017.5
20210923161537 70 50 0.0 2.0 0.00 0.00 0.00 67 1017.6
20210923160107 69 2 0.0 9.0 0.00 0.00 0.00 64 1017.7
20210923154517 69 5 0.0 6.0 0.00 0.00 0.00 68 1017.8
20210923153017 68 18 0.0 7.0 0.00 0.00 0.00 70 1017.7
20210923151535 67 113 1.0 7.0 0.00 0.00 0.00 70 1017.8
20210923150026 66 18 0.0 5.0 0.00 0.00 0.00 74 1017.9
20210923144505 65 33 1.0 6.0 0.00 0.00 0.00 72 1017.9
20210923143002 65 27 0.0 5.0 0.00 0.00 0.00 74 1017.9
20210923141818 64 66 0.0 7.0 0.00 0.00 0.00 76 1017.8
20210923140208 63 35 0.0 3.0 0.00 0.00 0.00 81 1017.7
20210923134622 62 6 0.0 3.0 0.00 0.00 0.00 85 1017.7
20210923133152 61 342 0.0 2.0 0.00 0.00 0.00 89 1017.5
20210923131637 60 40 0.0 1.0 0.00 0.00 0.00 91 1017.5
20210923130133 59 39 0.0 0.0 0.00 0.00 0.00 94 1017.3
20210923124604 58 11 0.0 0.0 0.00 0.00 0.00 96 1017.2
20210923123104 57 336 0.0 1.0 0.00 0.00 0.00 98 1017.0
20210923121610 55 325 0.0 0.0 0.00 0.00 0.00 99 1016.8
20210923120135 54 304 0.0 0.0 0.00 0.00 0.00 99 1016.8
20210923114616 54 335 0.0 0.0 0.00 0.00 0.00 99 1016.5
20210923113035 54 335 0.0 0.0 0.00 0.00 0.00 99 1016.5
20210923111557 54 351 0.0 0.0 0.00 0.00 0.00 99 1016.4
20210923110111 54 352 0.0 0.0 0.00 0.00 0.00 98 1016.4
20210923104556 55 352 0.0 0.0 0.00 0.00 0.00 98 1016.3
20210923103104 55 352 0.0 0.0 0.00 0.00 0.00 98 1016.1
20210923101541 55 352 0.0 0.0 0.00 0.00 0.00 98 1016.2
20210923100107 55 347 0.0 0.0 0.00 0.00 0.00 98 1016.1
20210923094529 56 357 0.0 0.0 0.00 0.00 0.00 97 1015.9
20210923093024 56 6 0.0 0.0 0.00 0.00 0.00 97 1015.8
20210923091525 56 6 0.0 0.0 0.00 0.00 0.00 97 1015.9
20210923090043 57 5 0.0 0.0 0.00 0.00 0.00 97 1016.0
20210923084526 57 352 0.0 0.0 0.00 0.00 0.00 96 1015.9
20210923083022 58 349 0.0 0.0 0.00 0.00 0.00 95 1016.0
20210923081517 58 335 0.0 0.0 0.00 0.00 0.00 95 1016.2
20210923080014 59 335 0.0 0.0 0.00 0.00 0.00 95 1016.2
20210923074519 58 329 0.0 0.0 0.00 0.00 0.00 96 1016.0
20210923073102 58 332 0.0 0.0 0.00 0.00 0.00 95 1016.1
20210923071510 59 352 0.0 0.0 0.00 0.00 0.00 94 1016.2
20210923070009 59 20 0.0 0.0 0.00 0.00 0.00 94 1016.2
20210923064509 59 347 0.0 0.0 0.00 0.00 0.00 95 1016.1
20210923063007 58 328 0.0 0.0 0.00 0.00 0.00 93 1016.2
20210923061504 59 330 0.0 0.0 0.00 0.00 0.00 93 1016.1
20210923060014 59 329 0.0 0.0 0.00 0.00 0.00 91 1016.1
20210923054501 60 329 0.0 0.0 0.00 0.00 0.00 91 1016.1
20210923053146 60 328 0.0 0.0 0.00 0.00 0.00 90 1016.1
20210923051648 60 321 0.0 0.0 0.00 0.00 0.00 90 1016.2
20210923050105 61 18 0.0 0.0 0.00 0.00 0.00 89 1016.3
20210923044807 61 352 0.0 0.0 0.00 0.00 0.00 88 1016.3
20210923043146 61 330 0.0 0.0 0.00 0.00 0.00 89 1016.4
20210923041628 61 333 0.0 0.0 0.00 0.00 0.00 89 1016.3
20210923040130 62 332 0.0 0.0 0.00 0.00 0.00 88 1016.3
20210923034628 62 354 0.0 0.0 0.00 0.00 0.00 88 1016.2
20210923033103 63 333 0.0 0.0 0.00 0.00 0.00 88 1016.2
20210923031648 63 17 0.0 1.0 0.00 0.00 0.00 88 1016.1